Time;durP1;ratioP1;P1;durP2;ratioP2;P2;SDS_P1;SDS_P2;PMS_P1;PMS_P2;Temp;Humidity;BMP_temperature;BMP_pressure;BME280_temperature;BME280_humidity;BME280_pressure;Samples;Min_cycle;Max_cycle;Signal;HPM_P1;HPM_P2
2023/12/09 00:00:43;;;;;;;25.30;18.88;;;7.90;71.00;;;6.54;100.00;100366.91;4986928;28;20049;-78
2023/12/09 00:03:10;;;;;;;25.88;20.60;;;8.20;69.40;;;6.40;100.00;100338.28;4986925;28;20092;-77
2023/12/09 00:05:37;;;;;;;27.63;21.42;;;7.90;71.80;;;6.69;100.00;100384.25;4985884;28;20035;-77
2023/12/09 00:08:07;;;;;;;26.40;20.27;;;7.90;77.60;;;6.62;100.00;100386.03;4986908;28;20035;-77
2023/12/09 00:10:34;;;;;;;26.88;22.10;;;7.90;78.70;;;6.70;100.00;100392.94;4987335;28;20046;-77
2023/12/09 00:13:02;;;;;;;24.98;21.38;;;7.90;82.40;;;6.67;100.00;100399.94;4988577;28;20100;-77
2023/12/09 00:15:29;;;;;;;25.52;18.15;;;8.00;81.90;;;6.58;100.00;100379.09;5002407;28;20042;-77
2023/12/09 00:17:56;;;;;;;22.30;18.80;;;7.90;75.10;;;6.55;100.00;100366.03;5002724;28;20046;-77
2023/12/09 00:20:23;;;;;;;27.27;19.75;;;8.00;76.40;;;6.59;100.00;100382.56;4986878;28;20522;-77
2023/12/09 00:22:50;;;;;;;29.98;19.92;;;8.00;73.00;;;6.39;100.00;100347.00;4990958;28;20046;-77
2023/12/09 00:25:16;;;;;;;25.67;18.55;;;8.00;77.60;;;6.69;100.00;100397.31;5006270;28;20232;-77
2023/12/09 00:27:44;;;;;;;22.38;19.08;;;8.00;80.70;;;6.55;100.00;100359.97;5006893;28;20046;-78
2023/12/09 00:30:11;;;;;;;24.38;19.25;;;8.00;79.80;;;6.44;100.00;100353.06;4990988;28;20038;-77
2023/12/09 00:32:41;;;;;;;20.40;17.25;;;8.00;76.20;;;6.53;100.00;100366.06;4992100;28;20035;-77
2023/12/09 00:35:08;;;;;;;22.35;17.48;;;8.00;70.60;;;6.65;100.00;100385.16;5005794;28;20480;-77
2023/12/09 00:37:35;;;;;;;20.17;15.80;;;8.30;70.50;;;6.64;100.00;100392.13;4998907;28;20449;-77
2023/12/09 00:40:06;;;;;;;18.00;14.77;;;8.00;67.50;;;6.54;100.00;100385.22;5007275;28;20073;-77
2023/12/09 00:42:33;;;;;;;21.63;15.68;;;8.00;66.00;;;6.59;100.00;100387.81;5008038;28;20042;-77
2023/12/09 00:45:01;;;;;;;25.10;16.40;;;8.00;67.70;;;6.58;100.00;100386.94;4983126;28;20048;-77
2023/12/09 00:47:28;;;;;;;19.70;15.82;;;7.90;67.30;;;6.65;100.00;100401.69;4989448;28;20070;-78
2023/12/09 00:49:55;;;;;;;19.13;15.60;;;8.00;68.10;;;6.62;100.00;100406.06;5011432;28;20054;-77
2023/12/09 00:52:25;;;;;;;19.95;15.68;;;8.00;67.50;;;6.55;100.00;100392.19;4994936;28;20077;-77
2023/12/09 00:54:52;;;;;;;19.45;17.15;;;8.00;65.20;;;6.68;100.00;100421.75;4992320;28;20528;-79
2023/12/09 00:57:20;;;;;;;27.73;19.73;;;8.00;65.80;;;6.70;100.00;100417.38;5009569;28;20041;-78
2023/12/09 00:59:48;;;;;;;23.05;18.45;;;8.00;70.20;;;6.68;100.00;100419.13;4993797;28;20524;-78
2023/12/09 01:02:15;;;;;;;29.27;19.90;;;8.00;69.50;;;6.67;100.00;100415.63;4992883;28;20042;-77
2023/12/09 01:04:42;;;;;;;29.20;21.38;;;8.00;74.10;;;6.72;100.00;100418.22;4992316;28;20050;-77
2023/12/09 01:07:10;;;;;;;30.30;22.27;;;8.00;77.60;;;6.67;100.00;100407.78;5009407;28;20042;-77
2023/12/09 01:09:39;;;;;;;26.85;18.95;;;8.00;83.20;;;6.57;100.00;100395.69;5009090;28;20042;-78
2023/12/09 01:12:09;;;;;;;32.58;21.17;;;8.00;81.30;;;6.76;100.00;100422.53;4992717;28;20416;-78
2023/12/09 01:14:36;;;;;;;32.05;21.75;;;8.10;80.90;;;6.59;100.00;100391.31;5008685;28;20046;-78
2023/12/09 01:17:04;;;;;;;28.63;21.38;;;8.10;83.60;;;6.62;100.00;100396.50;5006027;28;20062;-78
2023/12/09 01:19:31;;;;;;;28.88;22.38;;;8.10;85.40;;;6.59;100.00;100395.66;5005165;28;20082;-78
2023/12/09 01:21:58;;;;;;;31.55;23.77;;;8.20;87.10;;;6.87;100.00;100432.94;4991303;28;20137;-77
2023/12/09 01:24:25;;;;;;;33.53;25.40;;;8.20;88.40;;;6.87;100.00;100427.72;4987002;28;20516;-78
2023/12/09 01:26:55;;;;;;;29.45;23.77;;;8.20;89.50;;;6.86;100.00;100431.19;5002034;28;20489;-77
2023/12/09 01:29:22;;;;;;;32.97;23.30;;;8.20;90.30;;;6.84;100.00;100426.84;5008410;28;20046;-77
2023/12/09 01:31:49;;;;;;;31.23;23.60;;;8.30;90.20;;;6.85;100.00;100424.22;5007160;28;20105;-78
2023/12/09 01:34:16;;;;;;;30.08;24.25;;;8.20;90.30;;;6.73;100.00;100409.50;4991149;28;20038;-78
2023/12/09 01:36:43;;;;;;;28.63;23.23;;;8.20;90.80;;;6.87;100.00;100429.44;5008540;28;20678;-77
2023/12/09 01:39:11;;;;;;;30.75;23.52;;;8.20;90.60;;;6.96;100.00;100445.06;5007913;28;20141;-78
2023/12/09 01:41:38;;;;;;;30.75;23.77;;;8.20;90.70;;;6.67;100.00;100402.56;5008293;28;20504;-78
2023/12/09 01:44:05;;;;;;;33.78;24.30;;;8.20;90.30;;;6.92;100.00;100451.19;4991089;28;20114;-78
2023/12/09 01:46:34;;;;;;;34.67;24.73;;;8.20;90.30;;;6.90;100.00;100445.09;5008305;28;20046;-78
2023/12/09 01:49:01;;;;;;;31.63;25.13;;;8.30;90.10;;;6.93;100.00;100451.19;5008291;28;20034;-77
2023/12/09 01:51:29;;;;;;;29.65;22.92;;;8.30;90.10;;;6.86;100.00;100436.41;5008313;28;20473;-77
2023/12/09 01:53:56;;;;;;;35.60;26.20;;;8.20;90.00;;;6.94;100.00;100446.81;4989713;28;20129;-78
2023/12/09 01:56:24;;;;;;;32.50;25.42;;;8.30;89.60;;;6.97;100.00;100448.53;4994476;28;20046;-77
2023/12/09 01:58:51;;;;;;;33.35;23.27;;;8.30;89.30;;;6.92;100.00;100436.38;4986647;28;20042;-77
2023/12/09 02:01:18;;;;;;;30.73;24.70;;;8.30;88.20;;;7.00;100.00;100445.91;4999301;28;20096;-77
2023/12/09 02:03:45;;;;;;;35.25;25.58;;;8.30;88.20;;;6.99;100.00;100454.63;5009047;28;20751;-78
2023/12/09 02:06:12;;;;;;;37.65;26.95;;;8.30;88.30;;;6.89;100.00;100436.41;4992614;28;20039;-77
2023/12/09 02:08:40;;;;;;;32.97;24.80;;;8.20;89.20;;;6.87;100.00;100429.44;4973509;28;20046;-77
2023/12/09 02:11:34;;;;;;;29.67;24.45;;;8.50;87.80;;;6.98;100.00;100445.03;4989552;28;20045;-77
2023/12/09 02:14:48;;;;;;;31.65;24.20;;;8.30;87.60;;;7.00;100.00;100440.66;4975530;28;20042;-77
2023/12/09 02:17:26;;;;;;;31.17;25.75;;;8.30;87.40;;;6.85;100.00;100428.59;4952317;28;20082;-77
2023/12/09 02:19:53;;;;;;;33.42;25.58;;;8.30;87.80;;;6.87;100.00;100432.06;4989724;28;20046;-77
2023/12/09 02:22:21;;;;;;;39.78;28.00;;;8.30;87.80;;;6.71;100.00;100407.75;5003858;28;20065;-77
2023/12/09 02:24:48;;;;;;;48.22;34.28;;;8.30;87.70;;;6.88;100.00;100431.19;5002157;28;20051;-77
2023/12/09 02:27:25;;;;;;;33.97;28.00;;;8.20;87.70;;;6.95;100.00;100436.34;5004881;28;20042;-77
2023/12/09 02:30:15;;;;;;;35.60;26.67;;;8.20;86.40;;;6.95;100.00;100441.56;4989385;28;20102;-77
2023/12/09 02:32:44;;;;;;;35.38;25.55;;;8.30;87.60;;;6.88;100.00;100433.78;5004782;28;20081;-76
2023/12/09 02:35:14;;;;;;;36.83;27.35;;;8.20;87.10;;;6.94;100.00;100441.56;5004076;28;20432;-77
2023/12/09 02:37:42;;;;;;;32.72;25.17;;;8.20;88.60;;;6.95;100.00;100433.72;4989385;28;20639;-77
2023/12/09 02:40:11;;;;;;;33.13;24.52;;;8.30;87.10;;;6.71;100.00;100379.88;4988463;28;20049;-76
2023/12/09 02:42:38;;;;;;;33.45;25.95;;;8.20;86.80;;;6.92;100.00;100417.19;5003949;28;20058;-77
2023/12/09 02:45:10;;;;;;;32.80;25.33;;;8.20;86.20;;;6.88;100.00;100402.41;5003433;28;20046;-77
2023/12/09 02:47:38;;;;;;;33.95;24.85;;;8.20;86.30;;;6.79;100.00;100393.78;5004286;28;20050;-77
2023/12/09 02:50:05;;;;;;;33.08;23.77;;;8.10;85.10;;;6.73;100.00;100388.56;5004691;28;20038;-77
2023/12/09 02:52:32;;;;;;;33.00;24.27;;;8.10;84.70;;;6.84;100.00;100404.16;5005711;28;20141;-77
2023/12/09 02:54:59;;;;;;;33.85;22.98;;;8.10;84.90;;;6.41;100.00;100331.31;5004538;28;20038;-77
2023/12/09 02:57:26;;;;;;;33.33;25.90;;;8.10;82.60;;;6.81;100.00;100399.84;5005871;28;20039;-77
2023/12/09 02:59:53;;;;;;;32.55;22.42;;;8.10;80.60;;;6.84;100.00;100398.94;5005526;28;20081;-77
2023/12/09 03:02:20;;;;;;;30.13;22.77;;;8.20;80.10;;;6.84;100.00;100391.09;4984727;28;20858;-77
2023/12/09 03:04:47;;;;;;;33.35;24.60;;;8.20;79.10;;;6.87;100.00;100395.44;4988901;28;20117;-77
2023/12/09 03:07:15;;;;;;;33.00;24.67;;;8.20;77.20;;;6.70;100.00;100364.19;4988090;28;20113;-77
2023/12/09 03:09:44;;;;;;;30.27;24.58;;;8.10;77.50;;;6.69;100.00;100360.72;5004027;28;20117;-77
2023/12/09 03:12:11;;;;;;;29.25;23.45;;;8.10;79.00;;;6.71;100.00;100353.72;5004212;28;20034;-77
2023/12/09 03:14:38;;;;;;;30.80;23.38;;;8.10;78.40;;;6.88;100.00;100384.97;5002999;28;20038;-77
2023/12/09 03:17:05;;;;;;;31.65;23.10;;;8.10;77.70;;;6.83;100.00;100373.66;4987454;28;20051;-76
2023/12/09 03:19:32;;;;;;;25.13;21.02;;;8.20;78.20;;;6.75;100.00;100357.19;4987552;28;20056;-76
2023/12/09 03:22:01;;;;;;;31.23;23.92;;;8.20;78.40;;;6.82;100.00;100377.16;4987446;28;20500;-77
2023/12/09 03:24:28;;;;;;;30.15;22.60;;;8.20;78.60;;;6.85;100.00;100378.91;4972618;28;20065;-77
2023/12/09 03:26:58;;;;;;;27.70;22.48;;;8.10;81.60;;;6.72;100.00;100352.00;4997418;28;20054;-77
2023/12/09 03:29:25;;;;;;;33.10;22.95;;;8.00;81.40;;;6.79;100.00;100366.75;5004837;28;20105;-77
2023/12/09 03:31:52;;;;;;;32.85;23.98;;;8.10;82.20;;;6.77;100.00;100366.75;5004917;28;20061;-77
2023/12/09 03:34:19;;;;;;;28.50;22.42;;;8.10;82.70;;;6.83;100.00;100372.81;5003211;28;20046;-77
2023/12/09 03:36:46;;;;;;;28.25;22.17;;;8.10;83.90;;;6.59;100.00;100330.28;4989717;28;20050;-77
2023/12/09 03:39:13;;;;;;;28.27;22.27;;;8.10;83.90;;;6.78;100.00;100358.00;4983271;28;20042;-76
2023/12/09 03:41:40;;;;;;;30.48;22.40;;;8.10;83.80;;;6.87;100.00;100383.25;4988347;28;20053;-77
2023/12/09 03:44:07;;;;;;;30.65;22.73;;;8.70;84.20;;;6.72;100.00;100359.84;5003594;28;20435;-77
2023/12/09 03:46:37;;;;;;;30.70;24.35;;;8.10;84.40;;;6.80;100.00;100369.34;4972141;28;20046;-77
2023/12/09 03:49:04;;;;;;;27.95;23.05;;;8.10;83.80;;;6.86;100.00;100370.16;4986950;28;20052;-77
2023/12/09 03:51:31;;;;;;;29.63;22.23;;;8.10;84.90;;;6.84;100.00;100371.94;4989675;28;20038;-77
2023/12/09 03:53:59;;;;;;;30.67;23.58;;;8.20;83.50;;;6.84;100.00;100366.69;5003880;28;20058;-77
2023/12/09 03:56:26;;;;;;;30.65;23.50;;;8.20;82.30;;;6.92;100.00;100380.56;5007715;28;20043;-77
2023/12/09 03:58:53;;;;;;;29.42;22.70;;;8.20;83.30;;;6.90;100.00;100367.53;5008604;28;20053;-78
2023/12/09 04:01:22;;;;;;;29.02;23.23;;;8.20;83.20;;;6.78;100.00;100357.16;4975338;28;20743;-77
2023/12/09 04:03:49;;;;;;;30.05;23.48;;;8.10;86.00;;;6.87;100.00;100374.53;4998899;28;20464;-77
2023/12/09 04:06:20;;;;;;;31.02;22.67;;;8.00;86.50;;;6.70;100.00;100375.53;4990510;28;20061;-77
2023/12/09 04:08:47;;;;;;;;;;;8.00;87.70;;;6.60;100.00;100361.66;4983420;28;20043;-77
2023/12/09 04:11:14;;;;;;;30.88;23.40;;;8.00;88.70;;;6.51;100.00;100341.69;4991142;28;19929;-77
2023/12/09 04:13:41;;;;;;;32.42;22.50;;;8.00;89.80;;;6.78;100.00;100381.53;5007175;28;20130;-77
2023/12/09 04:16:08;;;;;;;32.45;22.35;;;8.00;90.40;;;6.63;100.00;100352.91;5006500;28;20499;-77
2023/12/09 04:18:36;;;;;;;35.13;23.08;;;7.90;90.90;;;6.79;100.00;100380.69;4991568;28;20081;-77
2023/12/09 04:21:04;;;;;;;30.95;22.98;;;8.00;90.50;;;6.75;100.00;100367.66;4991405;28;20058;-77
2023/12/09 04:23:31;;;;;;;34.80;22.70;;;8.10;89.90;;;6.56;100.00;100327.69;4995760;28;20116;-77
2023/12/09 04:25:58;;;;;;;30.10;21.73;;;8.10;89.80;;;6.75;100.00;100351.97;4990535;28;20049;-77
2023/12/09 04:28:25;;;;;;;32.70;22.02;;;8.10;88.80;;;6.79;100.00;100362.38;4974790;28;20050;-77
2023/12/09 04:30:52;;;;;;;32.00;22.13;;;8.10;86.80;;;6.77;100.00;100348.44;5007194;28;20057;-77
2023/12/09 04:33:19;;;;;;;30.75;23.35;;;8.10;86.30;;;6.75;100.00;100355.44;5006868;28;20038;-77
2023/12/09 04:35:47;;;;;;;29.80;21.55;;;8.10;86.70;;;6.76;100.00;100362.38;4990145;28;20069;-77
2023/12/09 04:38:14;;;;;;;34.08;22.05;;;8.20;87.60;;;6.85;100.00;100376.28;4987223;28;20668;-77
2023/12/09 04:40:42;;;;;;;29.23;21.25;;;8.10;87.20;;;6.81;100.00;100376.31;5007108;28;20129;-78
2023/12/09 04:43:09;;;;;;;27.80;22.17;;;8.10;87.80;;;6.79;100.00;100359.78;5007221;28;20530;-77
2023/12/09 04:45:36;;;;;;;30.90;20.63;;;8.10;87.90;;;6.78;100.00;100365.00;4989984;28;20125;-77
2023/12/09 04:48:03;;;;;;;30.65;21.80;;;8.10;88.00;;;6.75;100.00;100355.44;5006437;28;20045;-77
2023/12/09 04:50:31;;;;;;;30.10;22.15;;;8.10;88.10;;;6.80;100.00;100366.75;5007134;28;20628;-77
2023/12/09 04:52:58;;;;;;;31.95;21.75;;;8.10;88.50;;;6.81;100.00;100352.78;5006754;28;20427;-77
2023/12/09 04:55:26;;;;;;;30.60;21.88;;;8.10;88.80;;;6.84;100.00;100357.09;4990098;28;20049;-77
2023/12/09 04:57:53;;;;;;;28.27;20.42;;;8.20;87.90;;;6.76;100.00;100341.47;5007609;28;20062;-78
2023/12/09 05:00:21;;;;;;;32.65;20.75;;;8.10;87.10;;;6.82;100.00;100340.56;5005890;28;20145;-77
2023/12/09 05:02:48;;;;;;;29.27;20.23;;;8.60;85.80;;;6.88;100.00;100334.41;4990325;28;20448;-77
2023/12/09 05:05:18;;;;;;;24.90;20.27;;;8.20;85.00;;;6.92;100.00;100349.19;5003809;28;20057;-78
2023/12/09 05:07:46;;;;;;;29.70;19.75;;;8.30;82.80;;;6.91;100.00;100353.56;4992562;28;20078;-77
2023/12/09 05:10:13;;;;;;;28.23;20.52;;;8.20;83.80;;;6.85;100.00;100339.66;5007335;28;20074;-77
2023/12/09 05:12:40;;;;;;;34.95;24.65;;;8.20;83.40;;;6.96;100.00;100358.75;5006370;28;20042;-77
2023/12/09 05:15:08;;;;;;;29.13;21.98;;;8.20;84.00;;;6.90;100.00;100335.25;5005450;28;20496;-77
2023/12/09 05:17:36;;;;;;;32.97;23.08;;;8.20;84.50;;;6.81;100.00;100321.41;5006417;28;20072;-77
2023/12/09 05:20:04;;;;;;;32.70;21.95;;;8.20;85.40;;;6.85;100.00;100345.75;5006007;28;20052;-77
2023/12/09 05:22:31;;;;;;;34.63;22.55;;;8.20;86.60;;;6.92;100.00;100354.41;4989921;28;20044;-77
2023/12/09 05:24:58;;;;;;;28.80;22.27;;;8.20;88.30;;;6.81;100.00;100328.34;4990626;28;20129;-77
2023/12/09 05:27:25;;;;;;;29.52;22.52;;;8.10;88.50;;;6.92;100.00;100339.59;5006632;28;20058;-77
2023/12/09 05:29:53;;;;;;;30.35;23.23;;;8.20;86.60;;;6.85;100.00;100319.59;4990975;28;20185;-77
2023/12/09 05:32:20;;;;;;;32.83;22.75;;;8.20;86.30;;;6.87;100.00;100316.97;4989503;28;20484;-77
2023/12/09 05:34:49;;;;;;;32.15;22.00;;;8.20;85.60;;;6.91;100.00;100323.91;5005932;28;20042;-77
2023/12/09 05:37:17;;;;;;;34.65;22.95;;;9.10;86.80;;;6.83;100.00;100312.66;5007325;28;20491;-77
2023/12/09 05:39:44;;;;;;;32.17;21.85;;;8.20;86.60;;;6.89;100.00;100320.44;5006693;28;20061;-77
2023/12/09 05:42:11;;;;;;;29.52;20.90;;;8.20;87.20;;;6.79;100.00;100303.97;5006198;28;20065;-77
2023/12/09 05:44:38;;;;;;;29.52;20.80;;;8.40;87.70;;;6.72;100.00;100294.47;5004639;28;20408;-77
2023/12/09 05:47:05;;;;;;;32.38;21.30;;;8.00;88.90;;;6.63;100.00;100284.94;5005974;28;20117;-77
2023/12/09 05:49:32;;;;;;;30.70;20.40;;;8.10;87.90;;;6.77;100.00;100314.44;4998966;28;20045;-77
2023/12/09 05:51:59;;;;;;;27.60;20.85;;;8.10;87.10;;;6.70;100.00;100297.09;4988437;28;20054;-77
2023/12/09 05:54:26;;;;;;;27.23;19.60;;;8.10;88.00;;;6.73;100.00;100307.50;5004789;28;20105;-77
2023/12/09 05:56:53;;;;;;;28.58;19.05;;;8.10;88.10;;;6.61;100.00;100300.66;5005532;28;20043;-77
2023/12/09 05:59:20;;;;;;;29.85;19.50;;;8.00;88.10;;;6.63;100.00;100295.38;5005586;28;20408;-77
2023/12/09 06:01:47;;;;;;;31.60;19.30;;;8.00;88.40;;;6.62;100.00;100301.50;4989189;28;20039;-77
2023/12/09 06:04:14;;;;;;;30.10;18.58;;;7.90;90.50;;;6.60;100.00;100292.81;4987799;28;20519;-78
2023/12/09 06:06:41;;;;;;;30.48;20.92;;;7.90;90.90;;;6.66;100.00;100298.00;4997606;28;20042;-77
2023/12/09 06:09:09;;;;;;;30.75;20.80;;;7.90;90.60;;;6.44;100.00;100274.63;5006260;28;20509;-77
2023/12/09 06:11:39;;;;;;;30.77;20.35;;;7.90;90.30;;;6.62;100.00;100294.53;5005504;28;20042;-77
2023/12/09 06:14:09;;;;;;;40.28;24.98;;;7.90;88.60;;;6.41;100.00;100260.75;4991336;28;20046;-78
2023/12/09 06:16:36;;;;;;;38.78;26.20;;;7.90;87.50;;;6.60;100.00;100266.66;4991038;28;20091;-78
2023/12/09 06:19:03;;;;;;;37.25;24.52;;;7.90;87.10;;;6.56;100.00;100271.06;5007690;28;20046;-78
2023/12/09 06:21:33;;;;;;;35.65;25.60;;;7.90;88.30;;;6.55;100.00;100278.91;4992708;28;20035;-78
2023/12/09 06:24:03;;;;;;;38.25;24.27;;;7.80;89.00;;;6.55;100.00;100285.00;5002454;28;20058;-79
2023/12/09 06:26:44;;;;;;;32.10;24.30;;;7.90;88.60;;;6.61;100.00;100286.69;5005053;28;20049;-77
2023/12/09 06:29:14;;;;;;;34.45;23.95;;;7.90;87.80;;;6.63;100.00;100287.53;4997048;28;20060;-78
2023/12/09 06:31:41;;;;;;;32.50;23.10;;;7.90;87.10;;;6.54;100.00;100267.59;4988338;28;20042;-77
2023/12/09 06:34:08;;;;;;;34.47;22.70;;;8.00;86.70;;;6.70;100.00;100290.97;4987909;28;20054;-77
2023/12/09 06:36:36;;;;;;;31.75;22.38;;;8.00;86.80;;;6.62;100.00;100257.94;4988811;28;20233;-77
2023/12/09 06:39:03;;;;;;;32.55;22.38;;;8.70;87.90;;;6.76;100.00;100273.47;4989475;28;20613;-77
2023/12/09 06:41:31;;;;;;;34.15;22.48;;;8.00;89.80;;;6.62;100.00;100259.66;5005929;28;20074;-78
2023/12/09 06:43:58;;;;;;;32.75;20.85;;;8.00;90.70;;;6.53;100.00;100258.88;5001554;28;20062;-77
2023/12/09 06:46:25;;;;;;;34.20;22.48;;;7.90;91.20;;;6.59;100.00;100264.94;5004374;28;20560;-77
2023/12/09 06:48:52;;;;;;;29.70;20.42;;;8.00;91.20;;;6.65;100.00;100273.59;4994103;28;20107;-77
2023/12/09 06:51:19;;;;;;;28.73;21.65;;;8.00;91.20;;;6.63;100.00;100266.63;4988404;28;20054;-77
2023/12/09 06:53:46;;;;;;;34.20;23.75;;;8.00;91.20;;;6.55;100.00;100248.41;4988037;28;20035;-77
2023/12/09 06:56:23;;;;;;;29.33;22.70;;;8.00;91.20;;;6.70;100.00;100264.81;4988215;28;20046;-77
2023/12/09 06:58:51;;;;;;;28.58;20.77;;;8.00;91.20;;;6.79;100.00;100283.94;5003446;28;20046;-78
2023/12/09 07:01:22;;;;;;;26.65;20.50;;;8.00;91.70;;;6.68;100.00;100267.47;4994442;28;20050;-77
2023/12/09 07:03:50;;;;;;;36.17;20.27;;;8.00;91.50;;;6.71;100.00;100277.91;4986963;28;20042;-77
2023/12/09 07:06:28;;;;;;;31.52;20.85;;;8.00;91.70;;;6.64;100.00;100271.00;4988466;28;20053;-77
2023/12/09 07:08:59;;;;;;;32.95;21.20;;;8.80;91.80;;;6.72;100.00;100287.47;5003600;28;20042;-77
2023/12/09 07:11:26;;;;;;;;;;;8.00;91.70;;;6.73;100.00;100273.50;5005353;28;20117;-77
2023/12/09 07:13:53;;;;;;;45.88;22.35;;;8.00;91.90;;;6.69;100.00;100271.81;4987773;28;19933;-77
2023/12/09 07:16:20;;;;;;;37.30;25.02;;;8.00;91.60;;;6.63;100.00;100262.28;4987323;28;20502;-77
2023/12/09 07:18:52;;;;;;;51.45;46.13;;;8.10;91.50;;;6.80;100.00;100287.41;4991569;28;20045;-77
2023/12/09 07:21:19;;;;;;;27.73;24.35;;;8.10;91.40;;;6.77;100.00;100282.19;4988957;28;20042;-77
2023/12/09 07:23:46;;;;;;;30.33;24.70;;;8.10;91.20;;;6.75;100.00;100269.13;4987536;28;20038;-77
2023/12/09 07:26:14;;;;;;;35.25;21.50;;;8.00;91.40;;;6.83;100.00;100291.75;5003649;28;20064;-77
2023/12/09 07:28:40;;;;;;;31.50;24.92;;;8.20;91.30;;;6.87;100.00;100286.47;5003919;28;20050;-77
2023/12/09 07:31:08;;;;;;;28.73;23.38;;;8.10;91.10;;;6.85;100.00;100276.91;4987540;28;20053;-77
2023/12/09 07:33:35;;;;;;;29.83;19.02;;;8.20;90.80;;;6.90;100.00;100278.59;5003380;28;20038;-77
2023/12/09 07:36:02;;;;;;;29.67;21.23;;;8.20;90.20;;;6.95;100.00;100292.47;4986837;28;20038;-77
2023/12/09 07:38:29;;;;;;;33.22;19.98;;;8.20;89.00;;;6.90;100.00;100275.09;4988954;28;20050;-77
2023/12/09 07:40:56;;;;;;;25.92;19.60;;;8.30;87.80;;;6.94;100.00;100282.00;5004006;28;20152;-77
2023/12/09 07:43:23;;;;;;;30.60;19.23;;;8.30;87.60;;;6.90;100.00;100275.09;4987672;28;20046;-77
2023/12/09 07:45:50;;;;;;;26.42;18.95;;;8.40;87.00;;;7.10;100.00;100303.66;4970927;28;20058;-77
2023/12/09 07:48:17;;;;;;;22.85;17.35;;;8.40;85.20;;;7.00;100.00;100274.13;5003558;28;20043;-77
2023/12/09 07:50:45;;;;;;;23.85;19.40;;;8.40;84.90;;;7.15;100.00;100287.91;5003647;28;20097;-77
2023/12/09 07:53:16;;;;;;;33.25;20.25;;;8.40;83.90;;;7.18;100.00;100295.72;4985907;28;20109;-77
2023/12/09 07:55:43;;;;;;;27.33;19.75;;;8.50;82.90;;;7.05;100.00;100264.47;4986667;28;20129;-77
2023/12/09 07:58:11;;;;;;;28.30;20.30;;;8.50;82.60;;;7.13;100.00;100271.38;4989491;28;20057;-77
2023/12/09 08:00:38;;;;;;;27.70;21.67;;;8.50;82.60;;;6.91;100.00;100234.97;4991105;28;20125;-77
2023/12/09 08:03:05;;;;;;;35.83;24.48;;;8.50;81.90;;;7.19;100.00;100263.44;4987384;28;20053;-77
2023/12/09 08:05:34;;;;;;;28.95;21.80;;;8.50;81.50;;;7.27;100.00;100277.31;5002564;28;20035;-77
2023/12/09 08:08:03;;;;;;;35.22;23.30;;;8.50;81.20;;;7.19;100.00;100258.22;4988458;28;20056;-77
2023/12/09 08:10:30;;;;;;;30.85;21.73;;;8.60;79.70;;;7.16;100.00;100245.16;4987611;28;20045;-77
2023/12/09 08:12:57;;;;;;;26.35;16.33;;;8.60;78.70;;;7.17;100.00;100247.75;4987379;28;20047;-77
2023/12/09 08:15:24;;;;;;;26.30;17.65;;;8.50;80.20;;;7.18;100.00;100249.50;5002543;28;20053;-76
2023/12/09 08:17:51;;;;;;;275.25;158.90;;;8.50;81.80;;;7.12;100.00;100241.72;4996266;28;20062;-77
2023/12/09 08:20:18;;;;;;;55.78;37.53;;;8.40;83.10;;;7.12;100.00;100240.88;4971268;28;20071;-77
2023/12/09 08:22:45;;;;;;;44.38;30.83;;;8.30;84.60;;;7.19;100.00;100248.63;4987093;28;20038;-77
2023/12/09 08:25:12;;;;;;;41.65;31.95;;;8.30;86.00;;;7.15;100.00;100232.97;5004287;28;20081;-77
2023/12/09 08:27:40;;;;;;;36.30;26.45;;;8.80;85.90;;;7.14;100.00;100229.47;5006921;28;20043;-79
2023/12/09 08:30:10;;;;;;;28.75;21.90;;;8.60;84.70;;;7.27;100.00;100247.66;5001544;28;20067;-78
2023/12/09 08:32:41;;;;;;;33.72;27.08;;;8.50;84.30;;;7.36;100.00;100253.63;5010486;28;20034;-79
2023/12/09 08:35:10;;;;;;;50.30;44.83;;;8.60;83.60;;;7.27;100.00;100231.94;4994234;28;20039;-78
2023/12/09 08:37:38;;;;;;;33.78;24.48;;;8.60;82.30;;;7.30;100.00;100243.25;5009640;28;20134;-78
2023/12/09 08:40:13;;;;;;;36.97;30.75;;;8.60;81.80;;;7.28;100.00;100223.22;5008766;28;20061;-78
2023/12/09 08:42:42;;;;;;;33.92;29.85;;;8.70;81.60;;;7.34;100.00;100221.38;4972188;28;20336;-78
2023/12/09 08:45:11;;;;;;;54.45;48.90;;;8.80;81.30;;;7.53;100.00;100236.84;5007870;28;20058;-77
2023/12/09 08:47:39;;;;;;;44.38;39.60;;;8.70;81.10;;;7.46;100.00;100216.88;5010822;28;20046;-78
2023/12/09 08:50:11;;;;;;;40.20;36.08;;;8.80;79.90;;;7.52;100.00;100220.28;5010246;28;20045;-78
2023/12/09 08:52:53;;;;;;;35.08;31.40;;;8.90;79.20;;;7.59;100.00;100222.81;5009552;28;20505;-78
2023/12/09 08:55:21;;;;;;;36.50;32.95;;;8.70;76.00;;;7.49;100.00;100206.34;5011403;28;20049;-77
2023/12/09 08:57:50;;;;;;;29.35;26.35;;;8.80;74.70;;;7.63;100.00;100219.25;4995283;28;20157;-78
2023/12/09 09:00:20;;;;;;;26.25;23.13;;;8.80;75.70;;;7.56;100.00;100197.50;5011763;28;20046;-78
2023/12/09 09:02:48;;;;;;;23.25;19.50;;;8.90;75.80;;;7.56;100.00;100184.41;4995220;28;20065;-79
2023/12/09 09:05:15;;;;;;;17.92;14.75;;;8.90;74.90;;;7.60;100.00;100191.38;5012527;28;20046;-78
2023/12/09 09:07:45;;;;;;;26.85;21.10;;;9.00;74.30;;;7.72;100.00;100200.78;5012272;28;20050;-77
2023/12/09 09:10:14;;;;;;;22.02;16.35;;;9.00;74.60;;;7.78;100.00;100208.53;5010763;28;20042;-78
2023/12/09 09:12:43;;;;;;;16.33;13.57;;;8.80;74.00;;;7.64;100.00;100179.06;5008841;28;20048;-77
2023/12/09 09:15:10;;;;;;;15.48;12.55;;;9.10;72.50;;;7.77;100.00;100198.97;5000292;28;20046;-78
2023/12/09 09:17:39;;;;;;;19.27;13.15;;;9.10;70.00;;;7.79;100.00;100199.78;5007459;28;20042;-77
2023/12/09 09:20:07;;;;;;;17.45;11.20;;;9.20;69.80;;;7.74;100.00;100190.31;4991124;28;20389;-77
2023/12/09 09:22:35;;;;;;;13.10;9.88;;;9.10;68.80;;;7.83;100.00;100182.28;5006605;28;20054;-78
2023/12/09 09:25:03;;;;;;;14.88;10.18;;;9.20;70.10;;;7.68;100.00;100149.34;4992912;28;20047;-77
2023/12/09 09:27:30;;;;;;;15.25;11.80;;;9.20;69.00;;;7.69;100.00;100139.72;5007531;28;20043;-77
2023/12/09 09:29:57;;;;;;;15.00;10.40;;;9.20;70.20;;;7.99;100.00;100180.28;4993126;28;20046;-78
2023/12/09 09:32:24;;;;;;;28.40;21.00;;;9.20;69.30;;;7.92;100.00;100163.81;4994710;28;20042;-78
2023/12/09 09:34:52;;;;;;;16.67;11.02;;;9.30;67.80;;;7.95;100.00;100150.66;4993188;28;20140;-78
2023/12/09 09:37:20;;;;;;;20.90;11.35;;;9.30;67.30;;;8.04;100.00;100156.63;4975720;28;20084;-78
2023/12/09 09:39:48;;;;;;;20.85;18.55;;;9.30;66.50;;;8.08;100.00;100160.94;4992316;28;20042;-78
2023/12/09 09:42:29;;;;;;;20.65;16.67;;;9.30;61.10;;;8.10;100.00;100148.66;4994772;28;20057;-78
2023/12/09 09:45:09;;;;;;;21.77;14.32;;;9.30;58.60;;;8.01;100.00;100125.22;5001701;28;20527;-78
2023/12/09 09:47:37;;;;;;;27.67;18.65;;;9.40;58.80;;;8.02;100.00;100130.47;4992195;28;20050;-78
2023/12/09 09:50:11;;;;;;;14.00;9.23;;;9.40;55.20;;;7.93;100.00;100110.53;5002968;28;20046;-77
2023/12/09 09:52:41;;;;;;;19.02;8.35;;;9.40;54.70;;;8.03;100.00;100129.56;4990473;28;20045;-77
2023/12/09 09:55:08;;;;;;;16.13;7.60;;;9.60;51.10;;;7.99;100.00;100127.00;5008185;28;20038;-78
2023/12/09 09:57:36;;;;;;;11.68;7.45;;;9.40;52.40;;;8.07;100.00;100131.22;5009445;28;20039;-78
2023/12/09 10:00:13;;;;;;;12.50;7.63;;;9.30;50.20;;;8.00;100.00;100107.78;4991544;28;20046;-77
2023/12/09 10:02:49;;;;;;;12.00;8.02;;;9.40;51.10;;;8.12;100.00;100117.19;5006816;28;20842;-77
2023/12/09 10:05:22;;;;;;;13.52;8.02;;;9.40;53.40;;;8.08;100.00;100116.38;4989830;28;20050;-79
2023/12/09 10:07:49;;;;;;;14.63;7.63;;;9.60;48.80;;;8.18;100.00;100117.94;5005016;28;20054;-79
2023/12/09 10:10:19;;;;;;;14.93;6.75;;;9.40;50.20;;;8.25;100.00;100118.69;5007085;28;20042;-79
2023/12/09 10:12:46;;;;;;;;;;;10.10;50.20;;;8.23;100.00;100116.13;5013326;28;20073;-77